Center — 9HA2615 — position and weather

sailwx.info

Track history (hours):
 
Tides and Currents Weather Stations Pressure Air Temp Water Temp Dewpoint Dewpoint Depression Visibility Wind Speed Wind Dir Waves Ship Positions

Center

Last reported at 2015-Jun-07 00:08 UTC. Time now 2015-Jun-30 10:02 UTC.
Position N 30°45' W 118°36'.
Warning: this ship's position is 23 days out of date.

Length 274 m; draft 9.3 m.

Type: Tanker. MMSI: 215030000.

Date/timePositionNaut miles runAvg speedWind from/ knotsBaromVisibWave heightAir tempDewpointWater temp
2015-Jun-07 00:08N 30°45' W 118°36'912.7
2015-Jun-06 23:27N 30°52' W 118°41'45212.5
2015-Jun-05 11:15N 37°27' W 123°08'811.9
2015-Jun-05 10:33N 37°34' W 123°03'1212.0
2015-Jun-05 09:33N 37°41' W 122°50'9 9.1
2015-Jun-05 08:33N 37°45' W 122°40'1211.7
2015-Jun-05 07:33N 37°50' W 122°27'10 9.6
2015-Jun-05 06:33N 37°60' W 122°25'1110.9
2015-Jun-05 05:33N 38°03' W 122°12'4 0.1
2015-Jun-03 08:33N 38°02' W 122°08'5 5.5
2015-Jun-03 07:33N 38°04' W 122°14'8 7.9
2015-Jun-03 06:33N 38°01' W 122°24'9 8.9
2015-Jun-03 05:33N 37°52' W 122°25'1110.4
2015-Jun-03 04:32N 37°46' W 122°36'9 8.8
2015-Jun-03 03:33N 37°41' W 122°45'1010.1
2015-Jun-03 02:33N 37°35' W 122°55'1111.1
2015-Jun-03 01:33N 37°29' W 123°06'1211.7
2015-Jun-03 00:33N 37°17' W 123°08'1711.8
2015-Jun-02 23:09N 37°00' W 123°08'911.9
2015-Jun-02 22:22N 36°51' W 123°08'26612.7
2015-Jun-02 01:26N 32°58' W 120°30'2613.3
2015-Jun-01 23:28N 32°38' W 120°11'1213.3
2015-Jun-01 22:33N 32°28' W 120°03'1313.1
2015-Jun-01 21:33N 32°18' W 119°52'1312.9
2015-Jun-01 20:34N 32°09' W 119°41'1312.4
2015-Jun-01 19:32N 32°00' W 119°31'1212.4
2015-Jun-01 18:33N 31°52' W 119°20'1212.4
2015-Jun-01 17:33N 31°44' W 119°10'1312.6
2015-Jun-01 16:34N 31°35' W 118°59'1111.0
2015-Jun-01 15:31N 31°27' W 118°49'7 1.7
2015-Jun-01 11:32N 31°33' W 118°53'2 1.3
2015-Jun-01 10:04N 31°34' W 118°55'1 1.2
2015-Jun-01 09:13N 31°35' W 118°56'1 1.2
2015-Jun-01 08:31N 31°35' W 118°57'2 1.6
2015-Jun-01 07:33N 31°36' W 118°58'2 1.9
2015-Jun-01 06:33N 31°37' W 119°00'2 1.9
2015-Jun-01 05:33N 31°38' W 119°02'30 9.7
2015-Jun-01 02:30N 32°07' W 119°07'2526.8
2015-Jun-01 01:33N 31°42' W 119°08'1 1.4
2015-Jun-01 00:34N 31°43' W 119°09'1 1.2
2015-May-31 23:33N 31°44' W 119°10'1 1.3
2015-May-31 22:33N 31°45' W 119°11'1 1.2
2015-May-31 21:33N 31°46' W 119°12'1 1.3
2015-May-31 20:33N 31°47' W 119°13'2 1.6
2015-May-31 19:33N 31°48' W 119°14'3 3.1
2015-May-31 18:33N 31°50' W 119°17'5 5.2
2015-May-31 17:33N 31°54' W 119°21'4 3.8
2015-May-31 16:32N 31°54' W 119°26'1 1.4
2015-May-31 15:33N 31°56' W 119°26'3 2.2
2015-May-31 14:08N 31°59' W 119°27'1 1.9
2015-May-31 13:32N 31°60' W 119°28'1 1.5
2015-May-31 12:33N 32°00' W 119°29'6 6.3
2015-May-31 11:33N 32°07' W 119°28'1010.0
2015-May-31 10:33N 32°17' W 119°25'1010.0
2015-May-31 09:34N 32°26' W 119°23'10 9.9
2015-May-31 08:33N 32°36' W 119°20'12 9.7
2015-May-31 07:19N 32°48' W 119°16'8 9.9
2015-May-31 06:31N 32°54' W 119°11'10 9.9
2015-May-31 05:33N 33°03' W 119°06'1 0.6
2015-May-31 04:34N 33°03' W 119°05'10 9.9
2015-May-31 03:34N 33°12' W 118°60'1010.0
2015-May-31 02:34N 33°20' W 118°54'10 9.9
2015-May-31 01:33N 33°29' W 118°48'12 9.7
2015-May-31 00:18N 33°39' W 118°40'710.0
2015-May-30 23:33N 33°46' W 118°35'1010.1
2015-May-30 22:34N 33°54' W 118°28'1 1.1
2015-May-30 21:34N 33°54' W 118°27'0 0.1
2015-May-30 20:33N 33°54' W 118°27'  
Track history (hours):
 
Tides and Currents Weather Stations Pressure Air Temp Water Temp Dewpoint Dewpoint Depression Visibility Wind Speed Wind Dir Waves Ship Positions

Center

Last reported at 2015-Jun-07 00:08 UTC. Time now 2015-Jun-30 10:02 UTC.
Position N 30°45' W 118°36'.
Warning: this ship's position is 23 days out of date.

Length 274 m; draft 9.3 m.

Type: Tanker. MMSI: 215030000.

Date/timePositionNaut miles runAvg speedWind from/ knotsBaromVisibWave heightAir tempDewpointWater temp
2015-Jun-07 00:08N 30°45' W 118°36'912.7
2015-Jun-06 23:27N 30°52' W 118°41'45212.5
2015-Jun-05 11:15N 37°27' W 123°08'811.9
2015-Jun-05 10:33N 37°34' W 123°03'1212.0
2015-Jun-05 09:33N 37°41' W 122°50'9 9.1
2015-Jun-05 08:33N 37°45' W 122°40'1211.7
2015-Jun-05 07:33N 37°50' W 122°27'10 9.6
2015-Jun-05 06:33N 37°60' W 122°25'1110.9
2015-Jun-05 05:33N 38°03' W 122°12'4 0.1
2015-Jun-03 08:33N 38°02' W 122°08'5 5.5
2015-Jun-03 07:33N 38°04' W 122°14'8 7.9
2015-Jun-03 06:33N 38°01' W 122°24'9 8.9
2015-Jun-03 05:33N 37°52' W 122°25'1110.4
2015-Jun-03 04:32N 37°46' W 122°36'9 8.8
2015-Jun-03 03:33N 37°41' W 122°45'1010.1
2015-Jun-03 02:33N 37°35' W 122°55'1111.1
2015-Jun-03 01:33N 37°29' W 123°06'1211.7
2015-Jun-03 00:33N 37°17' W 123°08'1711.8
2015-Jun-02 23:09N 37°00' W 123°08'911.9
2015-Jun-02 22:22N 36°51' W 123°08'26612.7
2015-Jun-02 01:26N 32°58' W 120°30'2613.3
2015-Jun-01 23:28N 32°38' W 120°11'1213.3
2015-Jun-01 22:33N 32°28' W 120°03'1313.1
2015-Jun-01 21:33N 32°18' W 119°52'1312.9
2015-Jun-01 20:34N 32°09' W 119°41'1312.4
2015-Jun-01 19:32N 32°00' W 119°31'1212.4
2015-Jun-01 18:33N 31°52' W 119°20'1212.4
2015-Jun-01 17:33N 31°44' W 119°10'1312.6
2015-Jun-01 16:34N 31°35' W 118°59'1111.0
2015-Jun-01 15:31N 31°27' W 118°49'7 1.7
2015-Jun-01 11:32N 31°33' W 118°53'2 1.3
2015-Jun-01 10:04N 31°34' W 118°55'1 1.2
2015-Jun-01 09:13N 31°35' W 118°56'1 1.2
2015-Jun-01 08:31N 31°35' W 118°57'2 1.6
2015-Jun-01 07:33N 31°36' W 118°58'2 1.9
2015-Jun-01 06:33N 31°37' W 119°00'2 1.9
2015-Jun-01 05:33N 31°38' W 119°02'30 9.7
2015-Jun-01 02:30N 32°07' W 119°07'2526.8
2015-Jun-01 01:33N 31°42' W 119°08'1 1.4
2015-Jun-01 00:34N 31°43' W 119°09'1 1.2
2015-May-31 23:33N 31°44' W 119°10'1 1.3
2015-May-31 22:33N 31°45' W 119°11'1 1.2
2015-May-31 21:33N 31°46' W 119°12'1 1.3
2015-May-31 20:33N 31°47' W 119°13'2 1.6
2015-May-31 19:33N 31°48' W 119°14'3 3.1
2015-May-31 18:33N 31°50' W 119°17'5 5.2
2015-May-31 17:33N 31°54' W 119°21'4 3.8
2015-May-31 16:32N 31°54' W 119°26'1 1.4
2015-May-31 15:33N 31°56' W 119°26'3 2.2
2015-May-31 14:08N 31°59' W 119°27'1 1.9
2015-May-31 13:32N 31°60' W 119°28'1 1.5
2015-May-31 12:33N 32°00' W 119°29'6 6.3
2015-May-31 11:33N 32°07' W 119°28'1010.0
2015-May-31 10:33N 32°17' W 119°25'1010.0
2015-May-31 09:34N 32°26' W 119°23'10 9.9
2015-May-31 08:33N 32°36' W 119°20'12 9.7
2015-May-31 07:19N 32°48' W 119°16'8 9.9
2015-May-31 06:31N 32°54' W 119°11'10 9.9
2015-May-31 05:33N 33°03' W 119°06'1 0.6
2015-May-31 04:34N 33°03' W 119°05'10 9.9
2015-May-31 03:34N 33°12' W 118°60'1010.0
2015-May-31 02:34N 33°20' W 118°54'10 9.9
2015-May-31 01:33N 33°29' W 118°48'12 9.7
2015-May-31 00:18N 33°39' W 118°40'710.0
2015-May-30 23:33N 33°46' W 118°35'1010.1
2015-May-30 22:34N 33°54' W 118°28'1 1.1
2015-May-30 21:34N 33°54' W 118°27'0 0.1
2015-May-30 20:33N 33°54' W 118°27'  

Dump ship's entire track history